Share

Garrison, KY (41141)

2:06 AM EDT on April 24, 2014 (GMT -0400)
RAWS SHAWNEE OH US (MTS732) Elev 1067 ft | 38.69 °N, 83.20 °W | Change Station

Current weather conditions updated 42 minutes ago

Clear
Clear
45 °F
Feels Like 45 °F
N
3
Wind Variable Wind from NE
Gusts 4.0 mph
Sunrise 6:44 AM
Sunset 8:18 PM
Moon Waning Crescent

Today is forecast to be Much Warmer than yesterday.

Pressure 30.08 in
Visibility 10.0 miles
Clouds Clear
Windchill 45 °F
Dew Point 29 °F
Humidity 54%
Rainfall 0.00 in
Snow Depth Not available.
UV 0 out of 16
Pollen 9.90 out of 12
Air Quality Not available.
Flu Activity Sporadic
METAR KHTS 240551Z 05005KT 10SM CLR 08/00 A3008 RMK AO2 SLP184 T00830000 10139 20078 50001

More Conditions Fewer Conditions

Pressure 30.08 in
Visibility 10.0 miles
Clouds Clear
Windchill 45 °F
Dew Point 29 °F
Humidity 54%
Rainfall 0.00 in
Snow Depth Not available.
UV 0 out of 16
Pollen 9.90 out of 12
Air Quality Not available.
Flu Activity Sporadic
METAR KHTS 240551Z 05005KT 10SM CLR 08/00 A3008 RMK AO2 SLP184 T00830000 10139 20078 50001

More Conditions Fewer Conditions

10-Day Weather Forecast

Almanac

Astronomy

Apr. 24, 2014 Rise Set
Actual Time 6:44 AM EDT 8:18 PM EDT
Civil Twilight 6:16 AM EDT 8:46 PM EDT
Nautical Twilight 5:42 AM EDT 9:20 PM EDT
Astronomical Twilight 5:06 AM EDT 9:55 PM EDT
Moon 3:51 AM EDT 3:35 PM EDT
Length of Visible Light 14h 29m
Length of Day
13h 33m
Tomorrow will be 2m 16s longer.
Waning Crescent, 29% of the Moon is Illuminated
Today
Waning Crescent
Apr 29
New
May 6
First Quarter
May 14
Full
May 21
Last Quarter

Today's Extremes

State Highs State Lows

Community

  • Stacked
    Stacked
  • clouds approaching Red Sox Nation
    clouds approaching Red Sox Nation
  • Balance
    Balance
  • Nestled In
    Nestled In
  • Stunning Sunrise
    Stunning Sunrise

WunderPhotos

Upload Photos

1,704,566 photos uploaded!

WunderBlogs® & News

Nearby

Snow Depth

Station Depth Elevation
No new snow has been reported.

Coastal Water Temperatures

Place Temperature
No Stations Reporting

Earthquake Activity

City Distance Mag. Time & Date
No recent earthquake activity has been reported nearby.
Minimum magnitude displayed is 2.5.

Nearby Weather Stations

Station Location Temp. Windchill Dew Point Humidity Wind Precip. Elev Updated Type
RAWS SHAWNEE OH, Friendship, OH 45 °F 45 °F 29 °F 54% NE  at  3 mph 0.00 in / hr 1067 ft 1:24 AM EDT MADIS
Air Evac 97 Portsmouth, Portsmouth, OH 45.1 °F 45 °F 36 °F 71% WNW  at  1.0 mph 0.00 in / hr 525 ft 1:58 AM EDT Normal
Edge of Appalachia Preserve, West Union, OH 40.3 °F 40 °F 37 °F 89% NNE  at  0.0 mph 0.00 in / hr 663 ft 2:06 AM EDT Rapid Fire

Show More Stations Show Fewer Stations

What do you think?

We're not finished. Please let us know what you like, what you don't like, and what you are still missing.